Terminal Aerodrome Forecast
Issued by NWS Wilmington, NC

Home | Current Version | Previous Version | Text Only | Print | Product List | Glossary On
Versions: 1 2 3 4 5 6 7 8 9 10 11 12 13 14 15 16 17 18 19 20
000
FTUS42 KILM 310533
TAFLBT
TAF
KLBT 310533Z 3106/0106 07005KT P6SM BKN015
     FM310700 05003KT 5SM BR SCT007 BKN015
      TEMPO 3107/3111 3SM BR BKN004
     FM311400 04007KT P6SM VCSH BKN025 OVC050
     FM010200 VRB03KT P6SM SCT050 OVC100=

USA.gov is the U.S. government's official web portal to all federal, state and local government web resources and services.